Enterprise, Nevada
Current Conditions -  °F | °C
As of 9:56 AM on Saturday 25 Oct 2014 (Local Time) from KHND Reporting Station
Clear Clear  
Wind Chill: 78°   Ceiling: Unl
Heat Index: 78°   Visibility: 10mi
Dew Point: 40°   Wind: 12mph
Humidity: 26%   Direction: 190°S
Pressure: 30.08"   Gusts: NA
Location:  35.8437°N, 115.134°W
Report Text: KHND 251656Z 19010KT 10SM CLR 26/04 A3008 RMK AO2 T02550044 SLP168
Loading
Personal Weather Stations






























Interactive Weather Map
Tropical Storm Tracking
New forecast layout! Learn more

10-Day Weather Forecast

Advertisements
Track Severe Weather on mobile